sensor_id;sensor_type;location;lat;lon;timestamp;pressure;altitude;pressure_sealevel;temperature;humidity
81961;BME280;71462;50.650;6.888;2023-12-20T00:01:15;99696.38;;;5.37;82.12
81961;BME280;71462;50.650;6.888;2023-12-20T00:03:42;99698.19;;;4.83;83.43
81961;BME280;71462;50.650;6.888;2023-12-20T00:06:10;99693.13;;;4.81;84.39
81961;BME280;71462;50.650;6.888;2023-12-20T00:08:38;99692.25;;;5.46;81.46
81961;BME280;71462;50.650;6.888;2023-12-20T00:11:06;99684.56;;;5.77;79.94
81961;BME280;71462;50.650;6.888;2023-12-20T00:13:35;99699.09;;;5.42;80.24
81961;BME280;71462;50.650;6.888;2023-12-20T00:16:03;99689.38;;;5.26;81.48
81961;BME280;71462;50.650;6.888;2023-12-20T00:18:31;99683.06;;;5.05;82.25
81961;BME280;71462;50.650;6.888;2023-12-20T00:20:58;99686.94;;;4.54;84.96
81961;BME280;71462;50.650;6.888;2023-12-20T00:23:26;99692.66;;;4.46;85.71
81961;BME280;71462;50.650;6.888;2023-12-20T00:25:54;99697.69;;;4.30;86.25
81961;BME280;71462;50.650;6.888;2023-12-20T00:28:22;99698.53;;;4.91;83.33
81961;BME280;71462;50.650;6.888;2023-12-20T00:30:51;99702.53;;;4.72;83.44
81961;BME280;71462;50.650;6.888;2023-12-20T00:33:18;99694.28;;;4.90;82.68
81961;BME280;71462;50.650;6.888;2023-12-20T00:35:46;99702.69;;;5.31;81.50
81961;BME280;71462;50.650;6.888;2023-12-20T00:38:14;99705.72;;;5.72;78.87
81961;BME280;71462;50.650;6.888;2023-12-20T00:40:42;99697.09;;;5.05;81.33
81961;BME280;71462;50.650;6.888;2023-12-20T00:43:09;99695.63;;;4.93;82.01
81961;BME280;71462;50.650;6.888;2023-12-20T00:45:37;99696.09;;;4.85;83.23
81961;BME280;71462;50.650;6.888;2023-12-20T00:48:07;99692.81;;;4.99;82.68
81961;BME280;71462;50.650;6.888;2023-12-20T00:50:35;99699.41;;;5.46;80.40
81961;BME280;71462;50.650;6.888;2023-12-20T00:53:03;99703.59;;;5.42;80.20
81961;BME280;71462;50.650;6.888;2023-12-20T00:55:32;99691.44;;;5.19;81.95
81961;BME280;71462;50.650;6.888;2023-12-20T00:58:00;99698.94;;;5.27;81.23
81961;BME280;71462;50.650;6.888;2023-12-20T01:00:27;99696.00;;;5.01;81.57
81961;BME280;71462;50.650;6.888;2023-12-20T01:02:55;99703.72;;;4.81;83.00
81961;BME280;71462;50.650;6.888;2023-12-20T01:05:24;99710.59;;;5.53;80.89
81961;BME280;71462;50.650;6.888;2023-12-20T01:07:52;99716.22;;;5.88;78.27
81961;BME280;71462;50.650;6.888;2023-12-20T01:10:20;99713.25;;;5.26;80.41
81961;BME280;71462;50.650;6.888;2023-12-20T01:12:48;99724.97;;;5.57;80.28
81961;BME280;71462;50.650;6.888;2023-12-20T01:15:16;99729.50;;;5.34;81.01
81961;BME280;71462;50.650;6.888;2023-12-20T01:17:43;99733.75;;;5.89;78.57
81961;BME280;71462;50.650;6.888;2023-12-20T01:20:12;99726.66;;;5.41;80.97
81961;BME280;71462;50.650;6.888;2023-12-20T01:22:41;99727.59;;;5.30;82.32
81961;BME280;71462;50.650;6.888;2023-12-20T01:25:09;99734.16;;;4.62;83.81
81961;BME280;71462;50.650;6.888;2023-12-20T01:27:36;99731.78;;;5.04;83.49
81961;BME280;71462;50.650;6.888;2023-12-20T01:30:05;99727.28;;;5.26;81.66
81961;BME280;71462;50.650;6.888;2023-12-20T01:32:33;99729.69;;;5.06;83.35
81961;BME280;71462;50.650;6.888;2023-12-20T01:35:00;99726.34;;;5.64;80.86
81961;BME280;71462;50.650;6.888;2023-12-20T01:37:29;99732.94;;;5.89;79.73
81961;BME280;71462;50.650;6.888;2023-12-20T01:39:58;99733.50;;;6.60;76.57
81961;BME280;71462;50.650;6.888;2023-12-20T01:42:26;99732.41;;;5.87;76.99
81961;BME280;71462;50.650;6.888;2023-12-20T01:44:53;99740.94;;;6.21;76.32
81961;BME280;71462;50.650;6.888;2023-12-20T01:47:21;99752.94;;;6.28;75.00
81961;BME280;71462;50.650;6.888;2023-12-20T01:49:49;99746.38;;;6.78;74.55
81961;BME280;71462;50.650;6.888;2023-12-20T01:52:17;99749.88;;;6.47;74.30
81961;BME280;71462;50.650;6.888;2023-12-20T01:54:45;99755.53;;;6.60;73.90
81961;BME280;71462;50.650;6.888;2023-12-20T01:57:15;99758.97;;;6.56;73.48
81961;BME280;71462;50.650;6.888;2023-12-20T01:59:43;99767.75;;;6.56;73.07
81961;BME280;71462;50.650;6.888;2023-12-20T02:02:11;99776.84;;;5.48;76.54
81961;BME280;71462;50.650;6.888;2023-12-20T02:04:39;99793.47;;;4.99;78.88
81961;BME280;71462;50.650;6.888;2023-12-20T02:07:08;99792.06;;;4.75;78.16
81961;BME280;71462;50.650;6.888;2023-12-20T02:09:36;99798.97;;;4.26;80.30
81961;BME280;71462;50.650;6.888;2023-12-20T02:12:04;99799.09;;;4.48;79.15
81961;BME280;71462;50.650;6.888;2023-12-20T02:14:34;99802.16;;;3.66;79.57
81961;BME280;71462;50.650;6.888;2023-12-20T02:17:02;99818.41;;;4.03;77.72
81961;BME280;71462;50.650;6.888;2023-12-20T02:19:29;99810.16;;;3.42;79.74
81961;BME280;71462;50.650;6.888;2023-12-20T02:22:09;99818.78;;;3.38;80.81
81961;BME280;71462;50.650;6.888;2023-12-20T02:24:38;99818.50;;;3.63;77.01
81961;BME280;71462;50.650;6.888;2023-12-20T02:27:07;99815.38;;;3.66;77.84
81961;BME280;71462;50.650;6.888;2023-12-20T02:29:35;99819.75;;;3.08;79.43
81961;BME280;71462;50.650;6.888;2023-12-20T02:32:03;99816.19;;;3.14;79.38
81961;BME280;71462;50.650;6.888;2023-12-20T02:34:31;99819.34;;;3.52;77.34
81961;BME280;71462;50.650;6.888;2023-12-20T02:36:59;99812.34;;;3.74;76.24
81961;BME280;71462;50.650;6.888;2023-12-20T02:39:28;99818.44;;;3.74;75.60
81961;BME280;71462;50.650;6.888;2023-12-20T02:41:56;99818.16;;;3.88;74.52
81961;BME280;71462;50.650;6.888;2023-12-20T02:44:23;99816.09;;;3.21;76.02
81961;BME280;71462;50.650;6.888;2023-12-20T02:46:51;99823.47;;;3.47;76.24
81961;BME280;71462;50.650;6.888;2023-12-20T02:49:18;99830.38;;;3.48;76.56
81961;BME280;71462;50.650;6.888;2023-12-20T02:51:46;99819.22;;;3.87;73.83
81961;BME280;71462;50.650;6.888;2023-12-20T02:54:14;99822.09;;;3.45;75.86
81961;BME280;71462;50.650;6.888;2023-12-20T02:56:43;99826.00;;;3.83;74.59
81961;BME280;71462;50.650;6.888;2023-12-20T02:59:11;99833.63;;;3.27;75.75
81961;BME280;71462;50.650;6.888;2023-12-20T03:01:41;99821.97;;;3.80;75.88
81961;BME280;71462;50.650;6.888;2023-12-20T03:04:09;99838.50;;;3.47;75.96
81961;BME280;71462;50.650;6.888;2023-12-20T03:06:37;99833.56;;;2.99;77.67
81961;BME280;71462;50.650;6.888;2023-12-20T03:09:05;99833.44;;;3.17;77.52
81961;BME280;71462;50.650;6.888;2023-12-20T03:11:33;99835.84;;;3.07;78.75
81961;BME280;71462;50.650;6.888;2023-12-20T03:14:02;99829.53;;;3.08;78.98
81961;BME280;71462;50.650;6.888;2023-12-20T03:16:29;99822.88;;;2.82;79.37
81961;BME280;71462;50.650;6.888;2023-12-20T03:18:59;99829.41;;;3.03;78.74
81961;BME280;71462;50.650;6.888;2023-12-20T03:21:26;99831.47;;;3.12;79.06
81961;BME280;71462;50.650;6.888;2023-12-20T03:23:54;99838.34;;;3.13;78.22
81961;BME280;71462;50.650;6.888;2023-12-20T03:26:21;99825.09;;;3.48;76.44
81961;BME280;71462;50.650;6.888;2023-12-20T03:28:49;99823.47;;;3.47;77.19
81961;BME280;71462;50.650;6.888;2023-12-20T03:31:19;99816.78;;;3.57;76.15
81961;BME280;71462;50.650;6.888;2023-12-20T03:33:47;99815.63;;;3.01;78.49
81961;BME280;71462;50.650;6.888;2023-12-20T03:36:15;99804.00;;;3.25;77.68
81961;BME280;71462;50.650;6.888;2023-12-20T03:38:43;99801.97;;;3.84;76.11
81961;BME280;71462;50.650;6.888;2023-12-20T03:41:11;99806.38;;;3.38;77.04
81961;BME280;71462;50.650;6.888;2023-12-20T03:43:39;99810.47;;;3.46;76.99
81961;BME280;71462;50.650;6.888;2023-12-20T03:46:08;99807.09;;;3.34;77.43
81961;BME280;71462;50.650;6.888;2023-12-20T03:48:37;99806.69;;;3.82;75.32
81961;BME280;71462;50.650;6.888;2023-12-20T03:51:05;99813.25;;;3.39;76.13
81961;BME280;71462;50.650;6.888;2023-12-20T03:53:33;99801.00;;;3.33;76.79
81961;BME280;71462;50.650;6.888;2023-12-20T03:56:00;99802.31;;;3.47;77.14
81961;BME280;71462;50.650;6.888;2023-12-20T03:58:28;99804.00;;;3.25;77.71
81961;BME280;71462;50.650;6.888;2023-12-20T04:00:56;99812.06;;;3.07;77.75
81961;BME280;71462;50.650;6.888;2023-12-20T04:03:24;99823.53;;;3.24;76.33
81961;BME280;71462;50.650;6.888;2023-12-20T04:05:53;99825.38;;;3.64;75.25
81961;BME280;71462;50.650;6.888;2023-12-20T04:08:21;99833.19;;;3.07;76.77
81961;BME280;71462;50.650;6.888;2023-12-20T04:10:48;99828.78;;;3.36;77.15
81961;BME280;71462;50.650;6.888;2023-12-20T04:13:16;99825.44;;;3.80;76.23
81961;BME280;71462;50.650;6.888;2023-12-20T04:15:45;99825.00;;;3.72;75.04
81961;BME280;71462;50.650;6.888;2023-12-20T04:18:12;99824.63;;;3.40;77.17
81961;BME280;71462;50.650;6.888;2023-12-20T04:20:40;99827.56;;;3.15;78.51
81961;BME280;71462;50.650;6.888;2023-12-20T04:23:09;99828.53;;;3.49;77.37
81961;BME280;71462;50.650;6.888;2023-12-20T04:25:37;99820.75;;;3.31;77.28
81961;BME280;71462;50.650;6.888;2023-12-20T04:28:05;99813.78;;;3.25;77.94
81961;BME280;71462;50.650;6.888;2023-12-20T04:30:33;99820.22;;;3.05;78.03
81961;BME280;71462;50.650;6.888;2023-12-20T04:33:00;99813.53;;;3.26;77.89
81961;BME280;71462;50.650;6.888;2023-12-20T04:35:28;99814.88;;;3.40;77.07
81961;BME280;71462;50.650;6.888;2023-12-20T04:37:56;99820.34;;;2.99;78.33
81961;BME280;71462;50.650;6.888;2023-12-20T04:40:26;99804.97;;;3.76;75.08
81961;BME280;71462;50.650;6.888;2023-12-20T04:42:57;99826.22;;;2.89;78.30
81961;BME280;71462;50.650;6.888;2023-12-20T04:45:24;99820.13;;;2.89;78.73
81961;BME280;71462;50.650;6.888;2023-12-20T04:47:52;99828.25;;;3.10;77.56
81961;BME280;71462;50.650;6.888;2023-12-20T04:50:20;99822.59;;;3.30;77.19
81961;BME280;71462;50.650;6.888;2023-12-20T04:52:48;99828.28;;;2.99;78.28
81961;BME280;71462;50.650;6.888;2023-12-20T04:55:15;99818.06;;;2.67;80.54
81961;BME280;71462;50.650;6.888;2023-12-20T04:57:45;99823.91;;;2.58;80.64
81961;BME280;71462;50.650;6.888;2023-12-20T05:00:14;99824.50;;;2.95;79.74
81961;BME280;71462;50.650;6.888;2023-12-20T05:02:42;99828.50;;;2.97;78.75
81961;BME280;71462;50.650;6.888;2023-12-20T05:05:09;99826.97;;;3.13;78.27
81961;BME280;71462;50.650;6.888;2023-12-20T05:07:37;99842.22;;;3.34;77.82
81961;BME280;71462;50.650;6.888;2023-12-20T05:10:06;99845.78;;;3.52;76.57
81961;BME280;71462;50.650;6.888;2023-12-20T05:12:37;99839.63;;;3.23;77.13
81961;BME280;71462;50.650;6.888;2023-12-20T05:15:07;99837.63;;;3.82;74.41
81961;BME280;71462;50.650;6.888;2023-12-20T05:17:35;99838.47;;;3.99;73.93
81961;BME280;71462;50.650;6.888;2023-12-20T05:20:11;99838.69;;;3.29;75.80
81961;BME280;71462;50.650;6.888;2023-12-20T05:22:40;99831.44;;;3.36;75.94
81961;BME280;71462;50.650;6.888;2023-12-20T05:25:08;99837.09;;;2.81;78.27
81961;BME280;71462;50.650;6.888;2023-12-20T05:27:36;99834.63;;;3.49;75.70
81961;BME280;71462;50.650;6.888;2023-12-20T05:30:04;99830.19;;;3.67;74.26
81961;BME280;71462;50.650;6.888;2023-12-20T05:32:34;99829.84;;;4.20;72.40
81961;BME280;71462;50.650;6.888;2023-12-20T05:35:03;99836.22;;;3.79;73.35
81961;BME280;71462;50.650;6.888;2023-12-20T05:37:31;99834.44;;;3.68;74.94
81961;BME280;71462;50.650;6.888;2023-12-20T05:39:59;99838.88;;;3.79;74.16
81961;BME280;71462;50.650;6.888;2023-12-20T05:42:27;99838.75;;;3.45;74.54
81961;BME280;71462;50.650;6.888;2023-12-20T05:44:55;99835.38;;;3.22;77.11
81961;BME280;71462;50.650;6.888;2023-12-20T05:47:24;99836.53;;;3.02;77.18
81961;BME280;71462;50.650;6.888;2023-12-20T05:49:54;99830.16;;;3.38;76.45
81961;BME280;71462;50.650;6.888;2023-12-20T05:52:21;99837.56;;;3.01;77.07
81961;BME280;71462;50.650;6.888;2023-12-20T05:54:49;99835.59;;;2.50;79.20
81961;BME280;71462;50.650;6.888;2023-12-20T05:57:17;99838.59;;;3.24;76.96
81961;BME280;71462;50.650;6.888;2023-12-20T05:59:44;99841.47;;;2.99;76.78
81961;BME280;71462;50.650;6.888;2023-12-20T06:02:12;99844.56;;;2.61;78.66
81961;BME280;71462;50.650;6.888;2023-12-20T06:04:41;99828.16;;;2.70;77.38
81961;BME280;71462;50.650;6.888;2023-12-20T06:07:12;99829.16;;;2.34;79.54
81961;BME280;71462;50.650;6.888;2023-12-20T06:09:40;99838.34;;;2.43;79.72
81961;BME280;71462;50.650;6.888;2023-12-20T06:12:08;99843.53;;;2.62;79.17
81961;BME280;71462;50.650;6.888;2023-12-20T06:14:36;99843.31;;;2.86;78.92
81961;BME280;71462;50.650;6.888;2023-12-20T06:17:03;99843.88;;;3.12;76.55
81961;BME280;71462;50.650;6.888;2023-12-20T06:19:31;99850.31;;;3.16;77.46
81961;BME280;71462;50.650;6.888;2023-12-20T06:21:58;99843.47;;;3.43;75.56
81961;BME280;71462;50.650;6.888;2023-12-20T06:24:27;99852.44;;;3.42;75.56
81961;BME280;71462;50.650;6.888;2023-12-20T06:26:56;99850.75;;;3.25;76.70
81961;BME280;71462;50.650;6.888;2023-12-20T06:29:23;99849.94;;;3.36;76.40
81961;BME280;71462;50.650;6.888;2023-12-20T06:31:51;99852.72;;;3.06;76.24
81961;BME280;71462;50.650;6.888;2023-12-20T06:34:19;99852.59;;;2.66;79.23
81961;BME280;71462;50.650;6.888;2023-12-20T06:36:47;99852.50;;;2.84;78.66
81961;BME280;71462;50.650;6.888;2023-12-20T06:39:14;99847.22;;;2.96;78.22
81961;BME280;71462;50.650;6.888;2023-12-20T06:41:43;99851.47;;;2.62;79.43
81961;BME280;71462;50.650;6.888;2023-12-20T06:44:11;99843.88;;;3.00;77.94
81961;BME280;71462;50.650;6.888;2023-12-20T06:46:39;99841.69;;;2.62;78.96
81961;BME280;71462;50.650;6.888;2023-12-20T06:49:07;99841.25;;;2.65;79.12
81961;BME280;71462;50.650;6.888;2023-12-20T06:51:34;99845.00;;;3.28;77.37
81961;BME280;71462;50.650;6.888;2023-12-20T06:54:04;99851.81;;;3.64;75.38
81961;BME280;71462;50.650;6.888;2023-12-20T06:56:32;99859.81;;;3.29;75.64
81961;BME280;71462;50.650;6.888;2023-12-20T06:59:01;99861.66;;;3.28;75.91
81961;BME280;71462;50.650;6.888;2023-12-20T07:01:29;99857.72;;;3.42;75.75
81961;BME280;71462;50.650;6.888;2023-12-20T07:03:59;99855.06;;;3.54;75.49
81961;BME280;71462;50.650;6.888;2023-12-20T07:06:27;99867.53;;;3.07;76.40
81961;BME280;71462;50.650;6.888;2023-12-20T07:08:55;99865.59;;;3.02;76.92
81961;BME280;71462;50.650;6.888;2023-12-20T07:11:22;99865.41;;;3.56;74.81
81961;BME280;71462;50.650;6.888;2023-12-20T07:13:50;99863.34;;;3.86;73.41
81961;BME280;71462;50.650;6.888;2023-12-20T07:16:20;99861.88;;;3.38;74.75
81961;BME280;71462;50.650;6.888;2023-12-20T07:18:48;99862.44;;;3.52;73.94
81961;BME280;71462;50.650;6.888;2023-12-20T07:21:15;99866.69;;;3.53;74.37
81961;BME280;71462;50.650;6.888;2023-12-20T07:23:43;99859.88;;;3.45;74.81
81961;BME280;71462;50.650;6.888;2023-12-20T07:26:11;99865.00;;;3.75;72.96
81961;BME280;71462;50.650;6.888;2023-12-20T07:28:40;99874.41;;;3.83;73.17
81961;BME280;71462;50.650;6.888;2023-12-20T07:31:08;99883.72;;;3.10;74.93
81961;BME280;71462;50.650;6.888;2023-12-20T07:33:37;99875.31;;;3.48;73.82
81961;BME280;71462;50.650;6.888;2023-12-20T07:36:06;99882.03;;;3.68;73.91
81961;BME280;71462;50.650;6.888;2023-12-20T07:38:38;99881.66;;;3.24;74.04
81961;BME280;71462;50.650;6.888;2023-12-20T07:41:09;99880.75;;;3.18;75.39
81961;BME280;71462;50.650;6.888;2023-12-20T07:43:39;99875.88;;;3.39;74.49
81961;BME280;71462;50.650;6.888;2023-12-20T07:46:08;99883.66;;;3.57;72.79
81961;BME280;71462;50.650;6.888;2023-12-20T07:48:38;99881.66;;;3.01;75.09
81961;BME280;71462;50.650;6.888;2023-12-20T07:51:09;99880.97;;;3.05;74.25
81961;BME280;71462;50.650;6.888;2023-12-20T07:53:37;99872.41;;;2.45;76.18
81961;BME280;71462;50.650;6.888;2023-12-20T07:56:14;99876.81;;;2.74;76.04
81961;BME280;71462;50.650;6.888;2023-12-20T07:58:45;99880.84;;;3.12;74.05
81961;BME280;71462;50.650;6.888;2023-12-20T08:01:19;99857.78;;;2.96;75.42
81961;BME280;71462;50.650;6.888;2023-12-20T08:03:49;99864.09;;;2.83;75.86
81961;BME280;71462;50.650;6.888;2023-12-20T08:06:21;99864.19;;;3.23;73.93
81961;BME280;71462;50.650;6.888;2023-12-20T08:08:49;99866.75;;;2.83;75.55
81961;BME280;71462;50.650;6.888;2023-12-20T08:11:27;99887.63;;;3.20;74.76
81961;BME280;71462;50.650;6.888;2023-12-20T08:13:55;99881.28;;;3.32;74.02
81961;BME280;71462;50.650;6.888;2023-12-20T08:16:23;99889.53;;;3.59;72.93
81961;BME280;71462;50.650;6.888;2023-12-20T08:18:52;99885.44;;;3.05;74.75
81961;BME280;71462;50.650;6.888;2023-12-20T08:21:20;99882.91;;;2.75;75.28
81961;BME280;71462;50.650;6.888;2023-12-20T08:23:49;99887.28;;;2.93;75.19
81961;BME280;71462;50.650;6.888;2023-12-20T08:26:19;99882.19;;;2.56;75.96
81961;BME280;71462;50.650;6.888;2023-12-20T08:28:56;99878.44;;;2.64;76.45
81961;BME280;71462;50.650;6.888;2023-12-20T08:31:27;99874.53;;;2.78;76.18
81961;BME280;71462;50.650;6.888;2023-12-20T08:33:57;99867.53;;;2.95;75.98
81961;BME280;71462;50.650;6.888;2023-12-20T08:36:25;99866.16;;;2.69;76.17
81961;BME280;71462;50.650;6.888;2023-12-20T08:38:52;99868.44;;;2.54;76.33
81961;BME280;71462;50.650;6.888;2023-12-20T08:41:21;99857.09;;;3.00;75.75
81961;BME280;71462;50.650;6.888;2023-12-20T08:43:49;99849.63;;;2.62;76.02
81961;BME280;71462;50.650;6.888;2023-12-20T08:46:17;99855.00;;;2.67;76.00
81961;BME280;71462;50.650;6.888;2023-12-20T08:48:45;99841.97;;;2.19;76.75
81961;BME280;71462;50.650;6.888;2023-12-20T08:51:16;99854.06;;;2.50;76.03
81961;BME280;71462;50.650;6.888;2023-12-20T08:53:44;99846.53;;;2.77;74.45
81961;BME280;71462;50.650;6.888;2023-12-20T08:56:15;99854.78;;;2.80;74.45
81961;BME280;71462;50.650;6.888;2023-12-20T08:58:45;99861.09;;;2.79;73.69
81961;BME280;71462;50.650;6.888;2023-12-20T09:01:13;99848.56;;;3.10;73.04
81961;BME280;71462;50.650;6.888;2023-12-20T09:03:44;99852.84;;;3.23;72.03
81961;BME280;71462;50.650;6.888;2023-12-20T09:06:12;99872.78;;;3.54;71.28
81961;BME280;71462;50.650;6.888;2023-12-20T09:08:41;99865.59;;;3.02;71.98
81961;BME280;71462;50.650;6.888;2023-12-20T09:11:10;99873.47;;;3.37;71.59
81961;BME280;71462;50.650;6.888;2023-12-20T09:13:39;99873.09;;;3.45;71.75
81961;BME280;71462;50.650;6.888;2023-12-20T09:16:08;99870.84;;;3.14;72.46
81961;BME280;71462;50.650;6.888;2023-12-20T09:18:35;99870.25;;;3.35;71.79
81961;BME280;71462;50.650;6.888;2023-12-20T09:21:03;99874.28;;;3.49;71.60
81961;BME280;71462;50.650;6.888;2023-12-20T09:23:31;99883.00;;;3.38;71.71
81961;BME280;71462;50.650;6.888;2023-12-20T09:26:00;99885.75;;;3.43;71.58
81961;BME280;71462;50.650;6.888;2023-12-20T09:28:28;99879.56;;;3.78;70.15
81961;BME280;71462;50.650;6.888;2023-12-20T09:30:56;99885.72;;;3.67;70.94
81961;BME280;71462;50.650;6.888;2023-12-20T09:33:24;99882.69;;;3.11;72.56
81961;BME280;71462;50.650;6.888;2023-12-20T09:35:53;99864.13;;;3.46;71.81
81961;BME280;71462;50.650;6.888;2023-12-20T09:38:21;99864.03;;;3.41;72.08
81961;BME280;71462;50.650;6.888;2023-12-20T09:40:49;99872.03;;;3.18;72.95
81961;BME280;71462;50.650;6.888;2023-12-20T09:43:19;99866.72;;;3.70;71.88
81961;BME280;71462;50.650;6.888;2023-12-20T09:45:47;99865.19;;;3.45;71.84
81961;BME280;71462;50.650;6.888;2023-12-20T09:48:17;99861.25;;;3.60;71.28
81961;BME280;71462;50.650;6.888;2023-12-20T09:50:46;99868.19;;;3.77;70.62
81961;BME280;71462;50.650;6.888;2023-12-20T09:53:19;99875.00;;;3.73;71.31
81961;BME280;71462;50.650;6.888;2023-12-20T09:55:51;99866.56;;;3.48;71.51
81961;BME280;71462;50.650;6.888;2023-12-20T09:58:21;99872.44;;;3.38;72.71
81961;BME280;71462;50.650;6.888;2023-12-20T10:00:49;99875.31;;;3.13;73.45
81961;BME280;71462;50.650;6.888;2023-12-20T10:03:23;99873.94;;;3.34;73.60
81961;BME280;71462;50.650;6.888;2023-12-20T10:05:54;99870.50;;;3.34;73.14
81961;BME280;71462;50.650;6.888;2023-12-20T10:08:24;99889.34;;;3.14;72.51
81961;BME280;71462;50.650;6.888;2023-12-20T10:10:52;99858.81;;;3.18;73.34
81961;BME280;71462;50.650;6.888;2023-12-20T10:13:21;99859.84;;;3.17;73.24
81961;BME280;71462;50.650;6.888;2023-12-20T10:15:49;99856.91;;;3.54;72.96
81961;BME280;71462;50.650;6.888;2023-12-20T10:18:18;99872.69;;;3.02;74.86
81961;BME280;71462;50.650;6.888;2023-12-20T10:20:46;99858.94;;;2.88;74.89
81961;BME280;71462;50.650;6.888;2023-12-20T10:23:14;99865.25;;;2.87;75.24
81961;BME280;71462;50.650;6.888;2023-12-20T10:25:42;99853.63;;;3.11;74.16
81961;BME280;71462;50.650;6.888;2023-12-20T10:28:11;99852.97;;;3.16;75.17
81961;BME280;71462;50.650;6.888;2023-12-20T10:30:42;99854.00;;;2.92;76.02
81961;BME280;71462;50.650;6.888;2023-12-20T10:33:10;99860.66;;;2.94;75.93
81961;BME280;71462;50.650;6.888;2023-12-20T10:35:39;99843.66;;;2.90;75.94
81961;BME280;71462;50.650;6.888;2023-12-20T10:38:12;99847.34;;;2.89;76.55
81961;BME280;71462;50.650;6.888;2023-12-20T10:40:41;99832.97;;;3.08;75.45
81961;BME280;71462;50.650;6.888;2023-12-20T10:43:09;99836.28;;;3.27;74.96
81961;BME280;71462;50.650;6.888;2023-12-20T10:45:38;99824.41;;;3.41;74.99
81961;BME280;71462;50.650;6.888;2023-12-20T10:48:07;99835.00;;;3.30;74.78
81961;BME280;71462;50.650;6.888;2023-12-20T10:50:39;99820.03;;;2.83;77.15
81961;BME280;71462;50.650;6.888;2023-12-20T10:53:08;99812.41;;;3.10;76.86
81961;BME280;71462;50.650;6.888;2023-12-20T10:55:36;99805.41;;;3.16;76.54
81961;BME280;71462;50.650;6.888;2023-12-20T10:58:07;99805.97;;;3.58;75.57
81961;BME280;71462;50.650;6.888;2023-12-20T11:00:38;99799.91;;;3.17;75.98
81961;BME280;71462;50.650;6.888;2023-12-20T11:03:09;99798.78;;;2.90;77.81
81961;BME280;71462;50.650;6.888;2023-12-20T11:05:42;99794.63;;;3.06;76.59
81961;BME280;71462;50.650;6.888;2023-12-20T11:08:20;99787.03;;;3.21;76.53
81961;BME280;71462;50.650;6.888;2023-12-20T11:10:56;99789.59;;;2.93;77.10
81961;BME280;71462;50.650;6.888;2023-12-20T11:13:30;99805.09;;;2.89;77.26
81961;BME280;71462;50.650;6.888;2023-12-20T11:16:02;99805.75;;;3.08;76.93
81961;BME280;71462;50.650;6.888;2023-12-20T11:18:32;99812.53;;;3.15;76.11
81961;BME280;71462;50.650;6.888;2023-12-20T11:21:04;99804.53;;;3.39;75.45
81961;BME280;71462;50.650;6.888;2023-12-20T11:23:32;99798.13;;;3.35;75.75
81961;BME280;71462;50.650;6.888;2023-12-20T11:26:02;99807.03;;;3.17;75.47
81961;BME280;71462;50.650;6.888;2023-12-20T11:28:30;99796.94;;;3.83;73.73
81961;BME280;71462;50.650;6.888;2023-12-20T11:30:58;99799.28;;;3.27;75.55
81961;BME280;71462;50.650;6.888;2023-12-20T11:33:30;99804.06;;;3.42;75.15
81961;BME280;71462;50.650;6.888;2023-12-20T11:36:00;99810.75;;;3.33;75.86
81961;BME280;71462;50.650;6.888;2023-12-20T11:38:36;99812.88;;;3.47;74.76
81961;BME280;71462;50.650;6.888;2023-12-20T11:41:09;99815.53;;;3.47;74.46
81961;BME280;71462;50.650;6.888;2023-12-20T11:43:40;99824.88;;;3.38;74.92
81961;BME280;71462;50.650;6.888;2023-12-20T11:46:10;99821.25;;;3.16;75.76
81961;BME280;71462;50.650;6.888;2023-12-20T11:48:41;99815.25;;;3.32;75.42
81961;BME280;71462;50.650;6.888;2023-12-20T11:51:12;99806.31;;;3.22;75.05
81961;BME280;71462;50.650;6.888;2023-12-20T11:53:41;99811.66;;;3.38;74.25
81961;BME280;71462;50.650;6.888;2023-12-20T11:56:09;99805.50;;;3.61;74.04
81961;BME280;71462;50.650;6.888;2023-12-20T11:58:40;99806.72;;;3.42;74.89
81961;BME280;71462;50.650;6.888;2023-12-20T12:01:11;99809.13;;;3.72;73.73
81961;BME280;71462;50.650;6.888;2023-12-20T12:03:40;99805.50;;;3.21;75.58
81961;BME280;71462;50.650;6.888;2023-12-20T12:06:09;99800.84;;;3.40;75.02
81961;BME280;71462;50.650;6.888;2023-12-20T12:08:38;99781.97;;;3.08;75.70
81961;BME280;71462;50.650;6.888;2023-12-20T12:11:06;99793.16;;;3.38;75.25
81961;BME280;71462;50.650;6.888;2023-12-20T12:13:33;99792.16;;;3.28;75.52
81961;BME280;71462;50.650;6.888;2023-12-20T12:16:02;99794.19;;;3.49;75.16
81961;BME280;71462;50.650;6.888;2023-12-20T12:18:32;99779.75;;;3.28;75.37
81961;BME280;71462;50.650;6.888;2023-12-20T12:21:01;99783.38;;;3.51;75.27
81961;BME280;71462;50.650;6.888;2023-12-20T12:23:35;99781.22;;;3.36;76.21
81961;BME280;71462;50.650;6.888;2023-12-20T12:26:05;99778.13;;;3.39;76.16
81961;BME280;71462;50.650;6.888;2023-12-20T12:28:34;99771.72;;;3.80;74.88
81961;BME280;71462;50.650;6.888;2023-12-20T12:31:02;99767.00;;;3.65;75.24
81961;BME280;71462;50.650;6.888;2023-12-20T12:33:30;99758.97;;;3.60;75.92
81961;BME280;71462;50.650;6.888;2023-12-20T12:35:58;99752.56;;;3.73;74.58
81961;BME280;71462;50.650;6.888;2023-12-20T12:38:27;99750.88;;;3.50;75.76
81961;BME280;71462;50.650;6.888;2023-12-20T12:40:55;99741.63;;;3.81;74.52
81961;BME280;71462;50.650;6.888;2023-12-20T12:43:24;99743.03;;;3.55;76.01
81961;BME280;71462;50.650;6.888;2023-12-20T12:45:53;99741.84;;;3.79;74.19
81961;BME280;71462;50.650;6.888;2023-12-20T12:48:22;99745.09;;;3.53;75.84
81961;BME280;71462;50.650;6.888;2023-12-20T12:50:52;99744.78;;;3.49;75.70
81961;BME280;71462;50.650;6.888;2023-12-20T12:53:20;99749.47;;;3.47;75.62
81961;BME280;71462;50.650;6.888;2023-12-20T12:55:48;99739.94;;;3.46;76.92
81961;BME280;71462;50.650;6.888;2023-12-20T12:58:16;99745.66;;;3.55;77.71
81961;BME280;71462;50.650;6.888;2023-12-20T13:00:45;99736.38;;;3.53;77.65
81961;BME280;71462;50.650;6.888;2023-12-20T13:03:13;99735.84;;;3.39;77.84
81961;BME280;71462;50.650;6.888;2023-12-20T13:05:41;99730.94;;;3.31;79.67
81961;BME280;71462;50.650;6.888;2023-12-20T13:08:13;99735.75;;;3.79;78.93
81961;BME280;71462;50.650;6.888;2023-12-20T13:10:40;99723.16;;;3.24;82.45
81961;BME280;71462;50.650;6.888;2023-12-20T13:13:08;99711.03;;;3.85;80.27
81961;BME280;71462;50.650;6.888;2023-12-20T13:15:36;99723.72;;;3.26;81.46
81961;BME280;71462;50.650;6.888;2023-12-20T13:18:05;99716.31;;;3.40;80.83